Time;durP1;ratioP1;P1;durP2;ratioP2;P2;SDS_P1;SDS_P2;PMS_P1;PMS_P2;Temp;Humidity;BMP_temperature;BMP_pressure;BME280_temperature;BME280_humidity;BME280_pressure;Samples;Min_cycle;Max_cycle;Signal;HPM_P1;HPM_P2
2022/12/14 00:01:26;;;;;;;42.90;23.23;;;-2.40;99.90;;;;;;5093691;28;20122;-65
2022/12/14 00:03:53;;;;;;;39.30;23.60;;;-2.50;99.90;;;;;;5095190;28;20055;-64
2022/12/14 00:06:27;;;;;;;46.72;24.80;;;-2.60;99.90;;;;;;5095428;28;20379;-65
2022/12/14 00:08:56;;;;;;;42.13;23.25;;;-2.70;99.90;;;;;;5094974;28;20482;-64
2022/12/14 00:11:22;;;;;;;39.80;23.38;;;-2.80;99.90;;;;;;5081169;28;20047;-65
2022/12/14 00:13:56;;;;;;;43.15;24.17;;;-2.80;99.90;;;;;;5094451;28;20040;-65
2022/12/14 00:16:23;;;;;;;40.25;23.67;;;-2.90;99.90;;;;;;5077085;28;20418;-64
2022/12/14 00:18:52;;;;;;;41.47;23.67;;;-2.90;99.90;;;;;;5129020;27;20040;-64
2022/12/14 00:21:18;;;;;;;43.55;23.67;;;-3.00;99.90;;;;;;5094251;28;20044;-64
2022/12/14 00:23:45;;;;;;;40.70;24.10;;;-3.00;99.90;;;;;;5094748;28;20046;-63
2022/12/14 00:26:20;;;;;;;42.40;23.05;;;-3.00;99.90;;;;;;5126526;27;20031;-63
2022/12/14 00:28:48;;;;;;;39.42;23.25;;;-3.00;99.90;;;;;;5111077;28;20486;-64
2022/12/14 00:31:14;;;;;;;41.60;22.85;;;-3.00;99.90;;;;;;5094959;28;20095;-64
2022/12/14 00:33:40;;;;;;;40.30;22.02;;;-3.00;99.90;;;;;;5095258;28;20527;-64
2022/12/14 00:36:08;;;;;;;39.42;22.70;;;-3.00;99.90;;;;;;5094605;28;20051;-64
2022/12/14 00:38:33;;;;;;;38.20;21.40;;;-3.00;99.90;;;;;;5094864;28;20051;-64
2022/12/14 00:40:59;;;;;;;40.13;22.35;;;-3.00;99.90;;;;;;5094855;28;20032;-64
2022/12/14 00:43:25;;;;;;;36.65;21.23;;;-3.00;99.90;;;;;;5079301;27;20048;-65
2022/12/14 00:45:51;;;;;;;39.35;22.10;;;-3.00;99.90;;;;;;5128878;27;20039;-64
2022/12/14 00:48:19;;;;;;;39.55;23.08;;;-3.00;99.90;;;;;;5094714;28;20104;-65
2022/12/14 00:50:46;;;;;;;38.72;21.98;;;-3.00;99.90;;;;;;5094696;28;20435;-65
2022/12/14 00:53:12;;;;;;;39.92;22.40;;;-3.10;99.90;;;;;;5094725;28;20038;-65
2022/12/14 00:55:39;;;;;;;45.13;24.30;;;-3.10;99.90;;;;;;5094281;28;20043;-65
2022/12/14 00:58:05;;;;;;;40.05;23.02;;;-3.10;99.90;;;;;;5121615;27;20128;-64
2022/12/14 01:00:32;;;;;;;39.22;22.20;;;-3.10;99.90;;;;;;5096100;27;20517;-64
2022/12/14 01:02:57;;;;;;;40.80;21.90;;;-3.10;99.90;;;;;;5077594;28;20058;-64
2022/12/14 01:05:23;;;;;;;38.83;22.77;;;-3.10;99.90;;;;;;5125898;27;20035;-64
2022/12/14 01:07:50;;;;;;;40.42;22.50;;;-3.10;99.90;;;;;;5093814;28;20105;-63
2022/12/14 01:10:15;;;;;;;37.92;22.52;;;-3.10;99.90;;;;;;5126028;27;20764;-63
2022/12/14 01:12:41;;;;;;;37.97;22.05;;;-3.10;99.90;;;;;;5073975;28;20044;-64
2022/12/14 01:15:08;;;;;;;37.45;20.92;;;-3.10;99.90;;;;;;5084476;28;20035;-65
2022/12/14 01:17:33;;;;;;;39.88;22.35;;;-3.10;99.90;;;;;;5074680;28;20780;-64
2022/12/14 01:19:59;;;;;;;41.83;22.15;;;-3.10;99.90;;;;;;5057075;28;20048;-64
2022/12/14 01:22:25;;;;;;;42.05;22.40;;;-3.10;99.90;;;;;;5073742;28;20047;-65
2022/12/14 01:24:50;;;;;;;41.10;23.25;;;-3.10;99.90;;;;;;5073531;28;20043;-65
2022/12/14 01:27:16;;;;;;;38.20;21.27;;;-3.10;99.90;;;;;;5075966;28;20528;-65
2022/12/14 01:29:41;;;;;;;37.03;21.48;;;-3.10;99.90;;;;;;5073569;28;20150;-65
2022/12/14 01:32:07;;;;;;;35.20;20.48;;;-3.10;99.90;;;;;;5073820;28;20036;-65
2022/12/14 01:34:32;;;;;;;34.67;20.20;;;-3.10;99.90;;;;;;5075396;28;20073;-64
2022/12/14 01:36:58;;;;;;;35.30;19.50;;;-3.00;99.90;;;;;;5057045;28;20418;-65
2022/12/14 01:39:24;;;;;;;35.33;19.98;;;-3.00;99.90;;;;;;5073122;28;20031;-63
2022/12/14 01:41:53;;;;;;;37.05;21.98;;;-3.00;99.90;;;;;;5072763;28;20220;-63
2022/12/14 01:44:19;;;;;;;33.85;19.55;;;-3.10;99.90;;;;;;5072917;28;20040;-63
2022/12/14 01:46:57;;;;;;;40.50;21.33;;;-3.10;99.90;;;;;;5056672;28;20036;-64
2022/12/14 01:49:38;;;;;;;33.85;20.10;;;-3.10;99.90;;;;;;5090986;28;20044;-65
2022/12/14 01:52:12;;;;;;;35.90;20.73;;;-3.20;99.90;;;;;;5075748;28;20047;-65
2022/12/14 01:54:47;;;;;;;37.85;20.80;;;-3.20;99.90;;;;;;5072807;28;20044;-64
2022/12/14 01:57:14;;;;;;;32.83;19.02;;;-3.30;99.90;;;;;;5073204;28;20047;-64
2022/12/14 01:59:42;;;;;;;32.88;19.05;;;-3.30;99.90;;;;;;5071588;28;20040;-63
2022/12/14 02:02:11;;;;;;;33.20;19.10;;;-3.40;99.90;;;;;;5089290;28;20493;-63
2022/12/14 02:04:41;;;;;;;35.65;18.65;;;-3.40;99.90;;;;;;5077245;28;20137;-64
2022/12/14 02:07:07;;;;;;;31.58;18.10;;;-3.40;99.90;;;;;;5106659;28;20471;-64
2022/12/14 02:09:36;;;;;;;37.90;19.08;;;-3.40;99.90;;;;;;5090762;28;20035;-65
2022/12/14 02:12:39;;;;;;;30.75;18.00;;;-3.40;99.90;;;;;;5111787;27;20039;-64
2022/12/14 02:15:05;;;;;;;;;;;-3.40;99.90;;;;;;5049435;28;20032;-65
2022/12/14 02:17:31;;;;;;;31.60;16.77;;;-3.40;99.90;;;;;;5050510;28;19924;-65
2022/12/14 02:19:57;;;;;;;29.85;16.98;;;-3.40;99.90;;;;;;5052764;28;20033;-64
2022/12/14 02:22:50;;;;;;;29.00;18.10;;;-3.40;99.90;;;;;;5050365;28;20047;-64
2022/12/14 02:25:40;;;;;;;31.40;17.60;;;-3.40;99.90;;;;;;5050379;28;20072;-64
2022/12/14 02:28:17;;;;;;;34.25;17.60;;;-3.40;99.90;;;;;;5050136;28;20036;-65
2022/12/14 02:30:58;;;;;;;30.70;18.00;;;-3.40;99.90;;;;;;5082906;28;20058;-65
2022/12/14 02:33:52;;;;;;;29.95;16.80;;;-3.40;99.90;;;;;;5032927;28;20058;-64
2022/12/14 02:36:28;;;;;;;31.17;16.92;;;-3.50;99.90;;;;;;5050700;28;20052;-65
2022/12/14 02:39:05;;;;;;;31.33;18.52;;;-3.50;99.90;;;;;;5048721;28;20578;-65
2022/12/14 02:41:50;;;;;;;29.98;16.85;;;-3.60;99.90;;;;;;5052802;28;20080;-65
2022/12/14 02:44:34;;;;;;;29.38;16.95;;;-3.60;99.90;;;;;;5049721;28;20125;-63
2022/12/14 02:47:12;;;;;;;30.45;17.52;;;-3.80;99.90;;;;;;5050714;28;20037;-65
2022/12/14 02:49:56;;;;;;;33.75;17.02;;;-3.80;99.90;;;;;;5083281;28;20122;-63
2022/12/14 02:52:28;;;;;;;33.47;18.30;;;-3.90;99.90;;;;;;5091610;28;20100;-63
2022/12/14 02:55:04;;;;;;;30.58;17.55;;;-3.90;99.90;;;;;;5090358;28;20083;-65
2022/12/14 02:57:37;;;;;;;28.13;16.15;;;-3.90;99.90;;;;;;5128774;27;20083;-65
2022/12/14 03:00:05;;;;;;;35.10;18.50;;;-4.00;99.90;;;;;;5091783;28;20525;-65
2022/12/14 03:02:35;;;;;;;32.30;17.85;;;-4.00;99.90;;;;;;5092569;28;20071;-65
2022/12/14 03:05:01;;;;;;;33.08;17.55;;;-4.00;99.90;;;;;;5091692;28;20040;-64
2022/12/14 03:07:30;;;;;;;31.23;17.73;;;-4.00;99.90;;;;;;5092377;28;20052;-65
2022/12/14 03:10:00;;;;;;;34.97;17.83;;;-4.10;99.90;;;;;;5124902;28;20525;-65
2022/12/14 03:12:26;;;;;;;31.63;17.00;;;-4.10;99.90;;;;;;5124504;27;20044;-64
2022/12/14 03:14:54;;;;;;;31.75;17.83;;;-4.20;99.90;;;;;;5090795;28;20051;-65
2022/12/14 03:17:24;;;;;;;30.50;17.52;;;-4.30;99.90;;;;;;5094868;28;20054;-64
2022/12/14 03:19:52;;;;;;;31.95;17.38;;;-4.30;99.90;;;;;;5075394;28;20028;-64
2022/12/14 03:22:40;;;;;;;30.25;17.10;;;-4.30;99.90;;;;;;5075593;28;20050;-65
2022/12/14 03:25:24;;;;;;;32.53;16.95;;;-4.30;99.90;;;;;;5109982;28;20114;-65
2022/12/14 03:27:56;;;;;;;31.95;16.95;;;-4.30;99.90;;;;;;5092122;28;20074;-65
2022/12/14 03:30:22;;;;;;;28.08;16.45;;;-4.40;99.90;;;;;;5091976;28;20051;-65
2022/12/14 03:32:52;;;;;;;32.78;16.55;;;-4.40;99.90;;;;;;5092418;28;20509;-64
2022/12/14 03:35:41;;;;;;;30.45;16.80;;;-4.40;99.90;;;;;;5080205;28;20055;-65
2022/12/14 03:38:19;;;;;;;31.15;16.58;;;-4.50;99.90;;;;;;5096062;28;20170;-65
2022/12/14 03:40:47;;;;;;;29.88;16.95;;;-4.50;99.90;;;;;;5096120;28;20074;-64
2022/12/14 03:43:21;;;;;;;33.13;17.55;;;-4.40;99.90;;;;;;5095972;28;21934;-63
2022/12/14 03:45:56;;;;;;;32.00;17.65;;;-4.50;99.90;;;;;;5095554;28;20079;-63
2022/12/14 03:48:37;;;;;;;30.88;17.35;;;-4.50;99.90;;;;;;5093391;28;20142;-64
2022/12/14 03:51:36;;;;;;;30.20;16.83;;;-4.50;99.90;;;;;;5097538;28;20043;-64
2022/12/14 03:54:16;;;;;;;32.05;16.75;;;-4.50;99.90;;;;;;5095935;28;20047;-64
2022/12/14 03:56:48;;;;;;;31.58;17.35;;;-4.50;99.90;;;;;;5078695;28;20079;-63
2022/12/14 03:59:23;;;;;;;33.90;16.55;;;-4.60;99.90;;;;;;5093932;28;20031;-63
2022/12/14 04:02:24;;;;;;;32.40;16.90;;;-4.60;99.90;;;;;;5095556;28;20035;-65
2022/12/14 04:05:15;;;;;;;34.20;18.10;;;-4.60;99.90;;;;;;5034137;28;20041;-64
2022/12/14 04:07:52;;;;;;;31.08;17.35;;;-4.60;99.90;;;;;;5034408;28;20057;-64
2022/12/14 04:18:56;;;;;;;31.42;16.67;;;-4.60;99.90;;;;;;5066667;28;20425;-64
2022/12/14 04:21:44;;;;;;;30.65;16.55;;;-4.60;99.90;;;;;;5033649;28;20049;-63
2022/12/14 04:27:18;;;;;;;32.08;16.05;;;-4.60;99.90;;;;;;5064693;28;20041;-63
2022/12/14 04:29:55;;;;;;;31.10;16.38;;;-4.60;99.90;;;;;;5034042;28;20562;-64
2022/12/14 04:32:27;;;;;;;30.88;16.38;;;-4.60;99.90;;;;;;5031552;28;20792;-63
2022/12/14 04:35:19;;;;;;;31.05;16.88;;;-4.60;99.90;;;;;;5031949;28;20091;-65
2022/12/14 04:37:51;;;;;;;32.75;17.30;;;-4.60;99.90;;;;;;4957551;28;20097;-65
2022/12/14 04:40:24;;;;;;;33.80;17.63;;;-4.60;99.90;;;;;;4978995;28;20622;-64
2022/12/14 04:43:02;;;;;;;31.52;17.08;;;-4.60;99.90;;;;;;5035446;28;20163;-65
2022/12/14 04:45:34;;;;;;;32.05;16.75;;;-4.70;99.90;;;;;;5033094;28;20040;-65
2022/12/14 04:48:10;;;;;;;31.90;16.98;;;-4.70;99.90;;;;;;5050120;28;20048;-63
2022/12/14 04:50:41;;;;;;;29.70;17.02;;;-4.70;99.90;;;;;;5032903;28;20119;-65
2022/12/14 04:53:12;;;;;;;30.75;16.48;;;-4.80;99.90;;;;;;5033011;28;20043;-64
2022/12/14 04:55:55;;;;;;;29.20;16.17;;;-4.80;99.90;;;;;;5032896;28;20060;-64
2022/12/14 04:58:23;;;;;;;;;;;-4.80;99.90;;;;;;5033790;28;20184;-64
2022/12/14 05:01:08;;;;;;;29.08;15.75;;;-4.80;99.90;;;;;;5051077;28;19995;-65
2022/12/14 05:03:37;;;;;;;29.45;15.25;;;-4.80;99.90;;;;;;5033128;28;20033;-66
2022/12/14 05:06:50;;;;;;;29.63;15.63;;;-4.80;99.90;;;;;;5033127;28;20045;-65
2022/12/14 05:09:27;;;;;;;27.55;15.10;;;-4.80;99.90;;;;;;5024147;28;20196;-64
2022/12/14 05:12:16;;;;;;;33.60;16.10;;;-4.80;99.90;;;;;;5032564;28;20048;-65
2022/12/14 05:14:48;;;;;;;27.58;15.40;;;-4.80;99.90;;;;;;5061276;28;20055;-64
2022/12/14 05:17:14;;;;;;;27.95;15.00;;;-4.80;99.90;;;;;;5095413;28;20028;-64
2022/12/14 05:19:44;;;;;;;26.80;14.93;;;-4.80;99.90;;;;;;5127955;27;20043;-64
2022/12/14 05:22:10;;;;;;;30.58;15.88;;;-4.80;99.90;;;;;;5094077;28;20517;-65
2022/12/14 05:24:36;;;;;;;28.92;15.55;;;-4.90;99.90;;;;;;5094058;28;20040;-64
2022/12/14 05:27:01;;;;;;;31.55;15.00;;;-4.90;99.90;;;;;;5094037;28;20035;-65
2022/12/14 05:29:27;;;;;;;29.77;14.32;;;-4.90;99.90;;;;;;5093687;28;20067;-64
2022/12/14 05:31:53;;;;;;;27.10;15.75;;;-4.90;99.90;;;;;;5093768;28;20028;-64
2022/12/14 05:34:19;;;;;;;30.67;15.52;;;-4.90;99.90;;;;;;5094239;28;20039;-64
2022/12/14 05:36:44;;;;;;;30.23;16.27;;;-4.90;99.90;;;;;;5093775;28;20533;-65
2022/12/14 05:39:10;;;;;;;32.30;16.30;;;-4.90;99.90;;;;;;5093685;28;20172;-64
2022/12/14 05:41:36;;;;;;;30.67;14.88;;;-4.90;99.90;;;;;;5093606;28;20035;-64
2022/12/14 05:44:01;;;;;;;28.40;15.18;;;-4.90;99.90;;;;;;5109776;27;20125;-63
2022/12/14 05:46:27;;;;;;;25.20;14.27;;;-4.90;99.90;;;;;;5111269;28;20539;-64
2022/12/14 05:48:53;;;;;;;26.35;15.60;;;-5.00;99.90;;;;;;5092767;28;20375;-65
2022/12/14 05:51:19;;;;;;;29.20;15.05;;;-5.00;99.90;;;;;;5108159;27;20339;-64
2022/12/14 05:53:44;;;;;;;31.80;16.38;;;-5.00;99.90;;;;;;5093184;28;20035;-64
2022/12/14 05:56:11;;;;;;;28.70;14.93;;;-5.00;99.90;;;;;;5126347;27;20055;-64
2022/12/14 05:58:38;;;;;;;29.95;15.38;;;-4.90;99.90;;;;;;5092871;27;20386;-63
2022/12/14 06:01:09;;;;;;;29.73;15.38;;;-5.00;99.90;;;;;;5093636;28;20035;-67
2022/12/14 06:03:35;;;;;;;28.55;15.48;;;-5.00;99.90;;;;;;5122271;27;20031;-64
2022/12/14 06:06:06;;;;;;;27.38;14.75;;;-5.10;99.90;;;;;;5089103;28;20073;-64
2022/12/14 06:08:40;;;;;;;30.50;15.20;;;-5.10;99.90;;;;;;5092163;28;20044;-64
2022/12/14 06:11:15;;;;;;;26.45;14.60;;;-5.10;99.90;;;;;;5089270;27;20183;-65
2022/12/14 06:13:42;;;;;;;28.55;14.75;;;-5.20;99.90;;;;;;5091427;28;20042;-64
2022/12/14 06:16:20;;;;;;;26.73;14.65;;;-5.20;99.90;;;;;;5092711;28;20070;-65
2022/12/14 06:18:57;;;;;;;28.60;14.68;;;-5.10;99.90;;;;;;5092859;28;20031;-65
2022/12/14 06:21:26;;;;;;;28.00;14.20;;;-5.20;99.90;;;;;;5087395;28;20074;-65
2022/12/14 06:23:53;;;;;;;28.25;14.63;;;-5.10;99.90;;;;;;5093086;28;20133;-65
2022/12/14 06:26:19;;;;;;;29.73;15.18;;;-5.10;99.90;;;;;;5092877;28;20655;-64
2022/12/14 06:28:44;;;;;;;29.17;15.18;;;-5.10;99.90;;;;;;5092350;28;20122;-65
2022/12/14 06:31:22;;;;;;;32.30;15.77;;;-5.10;99.90;;;;;;5092549;28;20070;-65
2022/12/14 06:33:48;;;;;;;28.80;15.23;;;-5.10;99.90;;;;;;5090231;28;20031;-64
2022/12/14 06:36:35;;;;;;;28.90;14.68;;;-5.10;99.90;;;;;;5086884;28;20042;-65
2022/12/14 06:39:04;;;;;;;32.03;15.43;;;-5.10;99.90;;;;;;5093113;28;20093;-65
2022/12/14 06:41:30;;;;;;;29.48;15.60;;;-5.20;99.90;;;;;;5075766;28;20031;-64
2022/12/14 06:43:56;;;;;;;26.52;15.30;;;-5.20;99.90;;;;;;5108148;28;20042;-65
2022/12/14 06:46:23;;;;;;;29.58;15.32;;;-5.20;99.90;;;;;;5090866;28;20035;-65
2022/12/14 06:48:51;;;;;;;29.95;15.15;;;-5.20;99.90;;;;;;5111120;27;20526;-64
2022/12/14 06:51:17;;;;;;;31.73;15.55;;;-5.20;99.90;;;;;;5092433;28;20032;-64
2022/12/14 06:53:42;;;;;;;30.90;15.63;;;-5.20;99.90;;;;;;5091700;28;20080;-65
2022/12/14 06:56:10;;;;;;;32.58;15.98;;;-5.20;99.90;;;;;;5090844;28;20047;-65
2022/12/14 06:58:36;;;;;;;28.80;14.82;;;-5.10;99.90;;;;;;5090001;28;20061;-65
2022/12/14 07:01:04;;;;;;;29.95;15.48;;;-5.20;99.90;;;;;;5090420;28;20036;-65
2022/12/14 07:03:30;;;;;;;31.40;15.60;;;-5.20;99.90;;;;;;5091944;28;20051;-65
2022/12/14 07:05:59;;;;;;;30.15;16.38;;;-5.20;99.90;;;;;;5090647;28;20119;-65
2022/12/14 07:08:26;;;;;;;25.98;14.98;;;-5.20;99.90;;;;;;5095184;27;20473;-65
2022/12/14 07:10:52;;;;;;;29.35;15.45;;;-5.20;99.90;;;;;;5112201;28;20066;-66
2022/12/14 07:13:18;;;;;;;29.75;14.93;;;-5.20;99.90;;;;;;5097266;28;20405;-65
2022/12/14 07:15:51;;;;;;;28.60;15.23;;;-5.20;99.90;;;;;;5129835;27;20046;-65
2022/12/14 07:18:16;;;;;;;30.58;15.45;;;-5.30;99.90;;;;;;5079669;28;20390;-64
2022/12/14 07:20:43;;;;;;;33.35;16.75;;;-5.40;99.90;;;;;;5096100;28;20039;-65
2022/12/14 07:23:09;;;;;;;30.45;14.85;;;-5.40;99.90;;;;;;5099210;27;20397;-64
2022/12/14 07:25:35;;;;;;;30.05;14.73;;;-5.40;99.90;;;;;;5096151;28;20042;-65
2022/12/14 07:28:00;;;;;;;28.25;14.30;;;-5.40;99.90;;;;;;5094830;27;20051;-65
2022/12/14 07:30:26;;;;;;;31.20;15.32;;;-5.40;99.90;;;;;;5093302;28;20047;-64
2022/12/14 07:32:51;;;;;;;33.47;16.52;;;-5.50;99.90;;;;;;5097079;28;20100;-64
2022/12/14 07:35:17;;;;;;;31.92;16.10;;;-5.50;99.90;;;;;;5096855;27;20485;-65
2022/12/14 07:37:43;;;;;;;32.58;15.82;;;-5.50;99.90;;;;;;5095899;28;20506;-63
2022/12/14 07:40:09;;;;;;;27.40;14.48;;;-5.50;99.90;;;;;;5095342;28;20123;-64
2022/12/14 07:42:34;;;;;;;30.25;15.88;;;-5.50;99.90;;;;;;5078605;28;20075;-64
2022/12/14 07:45:00;;;;;;;27.90;14.13;;;-5.60;99.90;;;;;;5095213;28;20078;-64
2022/12/14 07:47:29;;;;;;;30.17;14.57;;;-5.60;99.90;;;;;;5095414;28;20517;-64
2022/12/14 07:49:54;;;;;;;29.80;15.10;;;-5.60;99.90;;;;;;5094960;28;20496;-64
2022/12/14 07:52:20;;;;;;;31.88;15.57;;;-5.60;99.90;;;;;;5095485;28;20118;-64
2022/12/14 07:54:45;;;;;;;28.60;15.18;;;-5.60;99.90;;;;;;5094417;28;20046;-64
2022/12/14 07:57:11;;;;;;;27.95;15.27;;;-5.60;99.90;;;;;;5095594;28;20463;-64
2022/12/14 07:59:37;;;;;;;30.15;16.17;;;-5.70;99.90;;;;;;5078196;28;20104;-64
2022/12/14 08:02:02;;;;;;;28.70;15.23;;;-5.60;99.90;;;;;;5095568;28;20619;-64
2022/12/14 08:04:28;;;;;;;29.38;15.07;;;-5.60;99.90;;;;;;5095571;28;20120;-64
2022/12/14 08:06:54;;;;;;;32.00;15.98;;;-5.70;99.90;;;;;;5094375;28;20067;-63
2022/12/14 08:09:20;;;;;;;30.55;15.02;;;-5.70;99.90;;;;;;5091096;28;20043;-63
2022/12/14 08:11:46;;;;;;;34.33;15.48;;;-5.60;99.90;;;;;;5093944;28;20045;-64
2022/12/14 08:14:16;;;;;;;31.55;16.02;;;-5.70;99.90;;;;;;5112169;28;20058;-63
2022/12/14 08:16:43;;;;;;;29.33;14.73;;;-5.70;99.90;;;;;;5095604;28;20093;-63
2022/12/14 08:19:10;;;;;;;29.15;15.13;;;-5.80;99.90;;;;;;5094381;28;20058;-64
2022/12/14 08:21:35;;;;;;;27.92;14.48;;;-5.80;99.90;;;;;;5095032;28;20031;-64
2022/12/14 08:24:01;;;;;;;31.92;16.42;;;-5.90;99.90;;;;;;5111894;28;20023;-64
2022/12/14 08:26:27;;;;;;;30.08;14.65;;;-5.80;99.90;;;;;;5096200;28;20040;-64
2022/12/14 08:28:54;;;;;;;33.83;16.35;;;-5.80;99.90;;;;;;5077759;28;20063;-65
2022/12/14 08:31:22;;;;;;;34.25;16.88;;;-5.80;99.90;;;;;;5092575;28;20104;-65
2022/12/14 08:33:48;;;;;;;35.90;16.00;;;-5.80;99.90;;;;;;5112804;28;20042;-64
2022/12/14 08:36:26;;;;;;;36.35;17.27;;;-5.80;99.90;;;;;;5094461;28;20078;-65
2022/12/14 08:39:18;;;;;;;48.25;21.48;;;-5.70;99.90;;;;;;5126422;27;20039;-64
2022/12/14 08:41:45;;;;;;;42.40;21.08;;;-5.50;99.90;;;;;;5092559;28;20078;-65
2022/12/14 08:44:11;;;;;;;34.35;18.75;;;-5.40;99.90;;;;;;5129258;27;20039;-65
2022/12/14 08:46:38;;;;;;;37.80;18.77;;;-5.30;99.90;;;;;;5095222;28;20043;-64
2022/12/14 08:49:03;;;;;;;39.88;20.25;;;-5.20;99.90;;;;;;5129209;27;20043;-64
2022/12/14 08:51:30;;;;;;;39.50;20.45;;;-5.10;99.90;;;;;;5094669;28;20096;-65
2022/12/14 08:53:57;;;;;;;38.40;18.55;;;-5.00;99.90;;;;;;5094518;28;20043;-65
2022/12/14 08:56:26;;;;;;;34.90;17.40;;;-5.00;99.90;;;;;;5077930;28;20043;-63
2022/12/14 08:58:52;;;;;;;33.28;16.70;;;-4.90;99.90;;;;;;5094879;28;20410;-63
2022/12/14 09:01:20;;;;;;;32.70;17.13;;;-4.80;99.90;;;;;;5128807;27;20118;-64
2022/12/14 09:03:47;;;;;;;31.60;16.95;;;-4.70;99.90;;;;;;5094365;28;20115;-64
2022/12/14 09:06:18;;;;;;;33.40;16.30;;;-4.70;99.90;;;;;;5094620;28;20126;-64
2022/12/14 09:08:44;;;;;;;31.35;16.60;;;-4.60;99.90;;;;;;5094495;28;20028;-64
2022/12/14 09:11:12;;;;;;;37.35;17.23;;;-4.60;99.90;;;;;;5094404;28;20069;-64
2022/12/14 09:13:37;;;;;;;31.23;16.88;;;-4.40;99.90;;;;;;5128476;27;20043;-64
2022/12/14 09:16:06;;;;;;;33.85;17.02;;;-4.30;99.90;;;;;;5094612;28;20474;-65
2022/12/14 09:18:33;;;;;;;32.33;17.02;;;-4.10;99.90;;;;;;5094028;28;20114;-64
2022/12/14 09:20:59;;;;;;;32.28;16.77;;;-3.90;99.90;;;;;;5094505;28;20063;-64
2022/12/14 09:23:26;;;;;;;30.95;16.67;;;-3.70;99.90;;;;;;5128685;27;20078;-65
2022/12/14 09:26:15;;;;;;;31.67;16.00;;;-3.50;99.90;;;;;;5094365;28;20530;-64
2022/12/14 09:28:45;;;;;;;34.15;17.02;;;-3.30;99.90;;;;;;5128409;27;20514;-65
2022/12/14 09:31:12;;;;;;;31.88;15.95;;;-3.20;99.90;;;;;;5111074;28;20024;-64
2022/12/14 09:33:38;;;;;;;33.72;17.00;;;-3.10;99.90;;;;;;5093913;28;20035;-63
2022/12/14 09:36:13;;;;;;;33.58;17.38;;;-3.10;99.90;;;;;;5094150;28;20394;-65
2022/12/14 09:38:39;;;;;;;34.85;16.48;;;-2.90;99.90;;;;;;5076923;28;20032;-64
2022/12/14 09:41:17;;;;;;;33.28;15.90;;;-2.70;99.90;;;;;;5093932;28;20028;-65
2022/12/14 09:43:50;;;;;;;31.60;16.50;;;-2.40;99.90;;;;;;5128150;27;20043;-64
2022/12/14 09:46:51;;;;;;;31.85;17.83;;;-2.10;99.90;;;;;;5094127;28;20087;-64
2022/12/14 09:49:26;;;;;;;34.80;18.05;;;-1.70;99.90;;;;;;5127941;27;20043;-63
2022/12/14 09:51:55;;;;;;;32.67;16.73;;;-1.50;99.90;;;;;;5093749;28;20375;-65
2022/12/14 09:54:28;;;;;;;32.30;17.65;;;-1.20;99.90;;;;;;5093606;28;20101;-65
2022/12/14 09:56:57;;;;;;;29.88;17.10;;;-0.90;99.90;;;;;;5108220;28;20054;-65
2022/12/14 09:59:25;;;;;;;28.83;16.08;;;-0.70;99.90;;;;;;5092269;28;20046;-64
2022/12/14 10:02:10;;;;;;;30.38;16.15;;;-0.40;99.90;;;;;;5092489;28;20036;-64
2022/12/14 10:04:41;;;;;;;30.42;17.05;;;-0.10;99.90;;;;;;5093399;28;20115;-65
2022/12/14 10:07:29;;;;;;;30.25;16.77;;;0.00;99.90;;;;;;5093634;28;20050;-65
2022/12/14 10:10:25;;;;;;;30.25;17.10;;;0.30;99.90;;;;;;5126616;27;20512;-64
2022/12/14 10:13:20;;;;;;;28.88;15.93;;;0.50;99.90;;;;;;5076958;28;20078;-65
2022/12/14 10:15:54;;;;;;;29.52;15.63;;;0.90;99.90;;;;;;5109292;27;20152;-65
2022/12/14 10:18:38;;;;;;;27.17;15.77;;;1.20;99.90;;;;;;5091421;28;20505;-64
2022/12/14 10:21:13;;;;;;;27.45;15.82;;;1.50;99.90;;;;;;5089715;28;20040;-65
2022/12/14 10:23:46;;;;;;;25.88;14.85;;;1.70;99.90;;;;;;5090001;28;20040;-64
2022/12/14 10:26:17;;;;;;;28.73;15.98;;;1.80;99.90;;;;;;5089672;28;20097;-64
2022/12/14 10:28:51;;;;;;;25.08;15.07;;;1.80;99.90;;;;;;5091238;28;20047;-65
2022/12/14 10:31:31;;;;;;;25.20;14.90;;;1.70;99.90;;;;;;5089778;28;20052;-64
2022/12/14 10:34:09;;;;;;;26.67;15.45;;;1.60;99.90;;;;;;5089578;28;20055;-64
2022/12/14 10:36:45;;;;;;;29.55;15.20;;;1.50;99.90;;;;;;5091040;28;20036;-65
2022/12/14 10:39:39;;;;;;;28.27;15.77;;;1.60;99.90;;;;;;5090861;28;20052;-65
2022/12/14 10:42:18;;;;;;;25.75;15.60;;;1.50;99.90;;;;;;5089091;28;20545;-64
2022/12/14 10:44:59;;;;;;;25.77;15.00;;;1.40;99.90;;;;;;5089569;28;20044;-64
2022/12/14 10:47:27;;;;;;;23.70;14.60;;;1.50;99.90;;;;;;5089726;28;20051;-64
2022/12/14 10:50:12;;;;;;;24.27;14.95;;;1.50;99.90;;;;;;5089554;28;20530;-66
2022/12/14 10:52:40;;;;;;;25.70;14.18;;;1.50;99.90;;;;;;5089625;28;20127;-64
2022/12/14 10:55:37;;;;;;;25.65;14.15;;;1.50;99.90;;;;;;5089466;28;20048;-64
2022/12/14 10:58:02;;;;;;;25.95;13.90;;;1.60;99.90;;;;;;5048066;28;20408;-65
2022/12/14 11:00:28;;;;;;;23.40;13.93;;;1.70;99.90;;;;;;5031296;28;20064;-65
2022/12/14 11:02:56;;;;;;;24.52;14.98;;;1.80;99.90;;;;;;5064928;28;20048;-64
2022/12/14 11:05:52;;;;;;;28.27;17.85;;;2.20;99.90;;;;;;5048022;28;21566;-66
2022/12/14 11:08:57;;;;;;;25.65;14.57;;;2.70;99.90;;;;;;5031602;28;20511;-65
2022/12/14 11:11:24;;;;;;;26.13;15.38;;;3.10;99.90;;;;;;4991747;28;20144;-64
2022/12/14 11:14:05;;;;;;;26.15;15.35;;;2.90;99.90;;;;;;4992174;28;20093;-65
2022/12/14 11:16:39;;;;;;;25.48;14.50;;;2.60;99.90;;;;;;4991809;28;20141;-65
2022/12/14 11:19:15;;;;;;;23.60;14.35;;;2.50;99.90;;;;;;4992275;28;20045;-66
2022/12/14 11:21:41;;;;;;;24.58;15.05;;;2.70;99.90;;;;;;4991930;28;20046;-66
2022/12/14 11:24:26;;;;;;;25.75;14.63;;;2.60;99.90;;;;;;4991844;28;20120;-64
2022/12/14 11:27:00;;;;;;;23.58;13.50;;;2.50;99.90;;;;;;4992341;28;20041;-64
2022/12/14 11:29:29;;;;;;;25.70;14.45;;;2.20;99.90;;;;;;4991711;28;20085;-64
2022/12/14 11:31:55;;;;;;;24.55;14.35;;;2.90;99.90;;;;;;4991788;28;20057;-65
2022/12/14 11:34:37;;;;;;;22.73;14.25;;;3.20;99.90;;;;;;5018610;28;20471;-64
2022/12/14 11:37:12;;;;;;;25.13;14.57;;;2.90;99.90;;;;;;5031367;28;20052;-64
2022/12/14 11:39:41;;;;;;;24.23;13.70;;;2.70;99.90;;;;;;5031111;28;20488;-65
2022/12/14 11:42:17;;;;;;;22.42;13.85;;;2.70;99.90;;;;;;5051709;28;20205;-65
2022/12/14 11:44:44;;;;;;;23.35;13.27;;;2.80;99.90;;;;;;5087300;28;20402;-65
2022/12/14 11:47:15;;;;;;;24.67;13.80;;;3.00;99.90;;;;;;5101217;28;20438;-65
2022/12/14 11:49:41;;;;;;;23.90;15.02;;;2.80;99.90;;;;;;5071843;28;20079;-65
2022/12/14 11:52:12;;;;;;;26.02;15.20;;;2.90;99.90;;;;;;5072101;28;20130;-64
2022/12/14 11:54:51;;;;;;;22.98;13.90;;;2.90;99.90;;;;;;5091103;28;20036;-65
2022/12/14 11:57:44;;;;;;;26.48;14.27;;;3.30;99.90;;;;;;5075523;28;20072;-64
2022/12/14 12:00:43;;;;;;;24.60;13.43;;;4.20;99.90;;;;;;5058820;28;20047;-65
2022/12/14 12:03:18;;;;;;;22.55;13.73;;;4.40;99.90;;;;;;5034661;28;20554;-64
2022/12/14 12:05:45;;;;;;;22.33;13.77;;;5.10;99.90;;;;;;5034552;28;20045;-65
2022/12/14 12:08:26;;;;;;;22.88;13.80;;;5.30;99.90;;;;;;5051317;28;20048;-65
2022/12/14 12:11:03;;;;;;;20.80;13.05;;;6.90;99.90;;;;;;5051165;28;20053;-65
2022/12/14 12:13:38;;;;;;;23.27;14.32;;;7.10;99.90;;;;;;5034322;28;20052;-63
2022/12/14 12:16:13;;;;;;;25.25;14.30;;;6.30;99.90;;;;;;5034380;28;20048;-64
2022/12/14 12:18:44;;;;;;;22.92;14.10;;;5.60;99.90;;;;;;5034182;28;20087;-65
2022/12/14 12:21:27;;;;;;;26.90;15.18;;;5.60;99.90;;;;;;5034296;28;20052;-64
2022/12/14 12:24:13;;;;;;;23.83;15.15;;;5.30;99.90;;;;;;5051179;28;20041;-66
2022/12/14 12:26:46;;;;;;;23.75;14.05;;;6.40;99.90;;;;;;5034038;28;20041;-64
2022/12/14 12:29:35;;;;;;;20.48;13.27;;;6.80;99.90;;;;;;5034490;28;20123;-64
2022/12/14 12:32:21;;;;;;;20.50;12.85;;;6.90;99.00;;;;;;5017363;28;20040;-65
2022/12/14 12:34:56;;;;;;;21.48;12.88;;;7.30;98.90;;;;;;5050404;28;20045;-64
2022/12/14 12:37:30;;;;;;;19.75;12.93;;;8.50;98.90;;;;;;5033989;28;20049;-64
2022/12/14 12:40:01;;;;;;;19.35;12.70;;;8.80;97.80;;;;;;5056180;28;20502;-64
2022/12/14 12:42:44;;;;;;;18.40;12.07;;;8.50;97.20;;;;;;5092259;28;20126;-65
2022/12/14 12:45:19;;;;;;;18.38;12.38;;;8.80;96.50;;;;;;5091862;28;20494;-65
2022/12/14 12:47:53;;;;;;;20.77;12.27;;;10.50;95.50;;;;;;5092010;28;20455;-65
2022/12/14 12:50:25;;;;;;;18.08;12.05;;;12.40;95.50;;;;;;5092001;28;20048;-65
2022/12/14 12:53:02;;;;;;;16.97;11.17;;;13.70;93.70;;;;;;5091477;28;20032;-65
2022/12/14 12:55:29;;;;;;;15.20;11.05;;;14.50;92.50;;;;;;5091706;28;20083;-64
2022/12/14 12:57:57;;;;;;;16.10;10.93;;;14.90;91.00;;;;;;5074939;28;20052;-65
2022/12/14 13:00:25;;;;;;;16.50;11.77;;;14.30;88.00;;;;;;5091532;28;20044;-64
2022/12/14 13:03:04;;;;;;;17.38;11.63;;;13.30;87.50;;;;;;5092641;28;20048;-65
2022/12/14 13:05:33;;;;;;;14.10;10.77;;;13.50;86.90;;;;;;5088698;28;20052;-65
2022/12/14 13:08:26;;;;;;;15.75;10.90;;;11.90;87.20;;;;;;5092594;28;20082;-65